Minden, Nebraska
Current Conditions -  °F | °C
As of 10:15 PM on Wednesday 26 Nov 2014 (Local Time) from KEAR Reporting Station
Clear Clear  
Wind Chill: 15°   Ceiling: Unl
Heat Index: 21°   Visibility: 10mi
Dew Point: 14°   Wind: 5mph
Humidity: 74%   Direction: 350°N
Pressure: 30.43"   Gusts: NA
Location:  40.5°N, 98.95°W
Report Text: KEAR 270415Z 35004KT 10SM CLR M06/M10 A3043 RMK AO1
Loading
Personal Weather Stations






























Interactive Weather Map New forecast layout! Learn more

10-Day Weather Forecast

Advertisements
Track Severe Weather on mobile